sensor_id;sensor_type;location;lat;lon;timestamp;temperature;humidity
4433;DHT22;2229;48.708;9.706;2023-11-21T00:01:08;8.90;99.90
4433;DHT22;2229;48.708;9.706;2023-11-21T00:03:35;8.80;99.90
4433;DHT22;2229;48.708;9.706;2023-11-21T00:06:03;8.90;99.90
4433;DHT22;2229;48.708;9.706;2023-11-21T00:08:30;8.90;99.90
4433;DHT22;2229;48.708;9.706;2023-11-21T00:10:57;8.80;99.90
4433;DHT22;2229;48.708;9.706;2023-11-21T00:13:26;8.80;99.90
4433;DHT22;2229;48.708;9.706;2023-11-21T00:15:54;8.80;99.90
4433;DHT22;2229;48.708;9.706;2023-11-21T00:18:21;8.80;99.90
4433;DHT22;2229;48.708;9.706;2023-11-21T00:20:48;8.80;99.90
4433;DHT22;2229;48.708;9.706;2023-11-21T00:23:16;8.80;99.90
4433;DHT22;2229;48.708;9.706;2023-11-21T00:25:44;8.80;99.90
4433;DHT22;2229;48.708;9.706;2023-11-21T00:28:11;8.80;99.90
4433;DHT22;2229;48.708;9.706;2023-11-21T00:30:38;8.80;99.90
4433;DHT22;2229;48.708;9.706;2023-11-21T00:33:07;8.70;99.90
4433;DHT22;2229;48.708;9.706;2023-11-21T00:35:34;8.70;99.90
4433;DHT22;2229;48.708;9.706;2023-11-21T00:38:01;8.70;99.90
4433;DHT22;2229;48.708;9.706;2023-11-21T00:40:29;8.70;99.90
4433;DHT22;2229;48.708;9.706;2023-11-21T00:42:57;8.60;99.90
4433;DHT22;2229;48.708;9.706;2023-11-21T00:45:24;8.60;99.90
4433;DHT22;2229;48.708;9.706;2023-11-21T00:47:52;8.60;99.90
4433;DHT22;2229;48.708;9.706;2023-11-21T00:50:21;8.60;99.90
4433;DHT22;2229;48.708;9.706;2023-11-21T00:52:48;8.60;99.90
4433;DHT22;2229;48.708;9.706;2023-11-21T00:55:17;8.60;99.90
4433;DHT22;2229;48.708;9.706;2023-11-21T00:57:44;8.60;99.90
4433;DHT22;2229;48.708;9.706;2023-11-21T01:00:12;8.60;99.90
4433;DHT22;2229;48.708;9.706;2023-11-21T01:02:43;8.60;99.90
4433;DHT22;2229;48.708;9.706;2023-11-21T01:05:10;8.60;99.90
4433;DHT22;2229;48.708;9.706;2023-11-21T01:07:39;8.60;99.90
4433;DHT22;2229;48.708;9.706;2023-11-21T01:10:07;8.60;99.90
4433;DHT22;2229;48.708;9.706;2023-11-21T01:12:36;8.60;99.90
4433;DHT22;2229;48.708;9.706;2023-11-21T01:15:05;8.60;99.90
4433;DHT22;2229;48.708;9.706;2023-11-21T01:17:34;8.60;99.90
4433;DHT22;2229;48.708;9.706;2023-11-21T01:20:02;8.70;99.90
4433;DHT22;2229;48.708;9.706;2023-11-21T01:22:32;8.60;99.90
4433;DHT22;2229;48.708;9.706;2023-11-21T01:25:00;8.60;99.90
4433;DHT22;2229;48.708;9.706;2023-11-21T01:27:30;8.60;99.90
4433;DHT22;2229;48.708;9.706;2023-11-21T01:29:57;8.60;99.90
4433;DHT22;2229;48.708;9.706;2023-11-21T01:32:24;8.70;99.90
4433;DHT22;2229;48.708;9.706;2023-11-21T01:34:51;8.60;99.90
4433;DHT22;2229;48.708;9.706;2023-11-21T01:37:19;8.60;99.90
4433;DHT22;2229;48.708;9.706;2023-11-21T01:39:47;8.60;99.90
4433;DHT22;2229;48.708;9.706;2023-11-21T01:42:16;8.60;99.90
4433;DHT22;2229;48.708;9.706;2023-11-21T01:44:44;8.70;99.90
4433;DHT22;2229;48.708;9.706;2023-11-21T01:47:13;8.60;99.90
4433;DHT22;2229;48.708;9.706;2023-11-21T01:49:43;8.70;99.90
4433;DHT22;2229;48.708;9.706;2023-11-21T01:52:11;8.60;99.90
4433;DHT22;2229;48.708;9.706;2023-11-21T01:54:39;8.70;99.90
4433;DHT22;2229;48.708;9.706;2023-11-21T01:57:08;8.70;99.90
4433;DHT22;2229;48.708;9.706;2023-11-21T01:59:38;8.60;99.90
4433;DHT22;2229;48.708;9.706;2023-11-21T02:02:06;8.70;99.90
4433;DHT22;2229;48.708;9.706;2023-11-21T02:04:34;8.70;99.90
4433;DHT22;2229;48.708;9.706;2023-11-21T02:07:03;8.70;99.90
4433;DHT22;2229;48.708;9.706;2023-11-21T02:09:31;8.70;99.90
4433;DHT22;2229;48.708;9.706;2023-11-21T02:12:00;8.70;99.90
4433;DHT22;2229;48.708;9.706;2023-11-21T02:14:27;8.70;99.90
4433;DHT22;2229;48.708;9.706;2023-11-21T02:16:57;8.70;99.90
4433;DHT22;2229;48.708;9.706;2023-11-21T02:19:24;8.70;99.90
4433;DHT22;2229;48.708;9.706;2023-11-21T02:21:53;8.70;99.90
4433;DHT22;2229;48.708;9.706;2023-11-21T02:24:22;8.70;99.90
4433;DHT22;2229;48.708;9.706;2023-11-21T02:26:50;8.70;99.90
4433;DHT22;2229;48.708;9.706;2023-11-21T02:29:18;8.70;99.90
4433;DHT22;2229;48.708;9.706;2023-11-21T02:31:50;8.70;99.90
4433;DHT22;2229;48.708;9.706;2023-11-21T02:34:17;8.70;99.90
4433;DHT22;2229;48.708;9.706;2023-11-21T02:36:45;8.70;99.90
4433;DHT22;2229;48.708;9.706;2023-11-21T02:39:13;8.70;99.90
4433;DHT22;2229;48.708;9.706;2023-11-21T02:41:41;8.70;99.90
4433;DHT22;2229;48.708;9.706;2023-11-21T02:44:09;8.70;99.90
4433;DHT22;2229;48.708;9.706;2023-11-21T02:46:37;8.70;99.90
4433;DHT22;2229;48.708;9.706;2023-11-21T02:49:06;8.70;99.90
4433;DHT22;2229;48.708;9.706;2023-11-21T02:51:36;8.70;99.90
4433;DHT22;2229;48.708;9.706;2023-11-21T02:54:04;8.70;99.90
4433;DHT22;2229;48.708;9.706;2023-11-21T02:56:34;8.70;99.90
4433;DHT22;2229;48.708;9.706;2023-11-21T02:59:07;8.70;99.90
4433;DHT22;2229;48.708;9.706;2023-11-21T03:01:34;8.80;99.90
4433;DHT22;2229;48.708;9.706;2023-11-21T03:04:02;8.70;99.90
4433;DHT22;2229;48.708;9.706;2023-11-21T03:06:30;8.70;99.90
4433;DHT22;2229;48.708;9.706;2023-11-21T03:08:57;8.70;99.90
4433;DHT22;2229;48.708;9.706;2023-11-21T03:11:24;8.70;99.90
4433;DHT22;2229;48.708;9.706;2023-11-21T03:13:52;8.70;99.90
4433;DHT22;2229;48.708;9.706;2023-11-21T03:16:20;8.70;99.90
4433;DHT22;2229;48.708;9.706;2023-11-21T03:18:47;8.70;99.90
4433;DHT22;2229;48.708;9.706;2023-11-21T03:21:14;8.70;99.90
4433;DHT22;2229;48.708;9.706;2023-11-21T03:23:42;8.70;99.90
4433;DHT22;2229;48.708;9.706;2023-11-21T03:26:11;8.70;99.90
4433;DHT22;2229;48.708;9.706;2023-11-21T03:28:39;8.70;99.90
4433;DHT22;2229;48.708;9.706;2023-11-21T03:31:06;8.70;99.90
4433;DHT22;2229;48.708;9.706;2023-11-21T03:33:36;8.70;99.90
4433;DHT22;2229;48.708;9.706;2023-11-21T03:36:04;8.70;99.90
4433;DHT22;2229;48.708;9.706;2023-11-21T03:38:33;8.70;99.90
4433;DHT22;2229;48.708;9.706;2023-11-21T03:41:00;8.70;99.90
4433;DHT22;2229;48.708;9.706;2023-11-21T03:43:28;8.70;99.90
4433;DHT22;2229;48.708;9.706;2023-11-21T03:45:56;8.70;99.90
4433;DHT22;2229;48.708;9.706;2023-11-21T03:48:23;8.70;99.90
4433;DHT22;2229;48.708;9.706;2023-11-21T03:50:52;8.70;99.90
4433;DHT22;2229;48.708;9.706;2023-11-21T03:53:19;8.30;99.90
4433;DHT22;2229;48.708;9.706;2023-11-21T03:55:47;8.60;99.90
4433;DHT22;2229;48.708;9.706;2023-11-21T03:58:15;8.60;99.90
4433;DHT22;2229;48.708;9.706;2023-11-21T04:00:42;8.60;99.90
4433;DHT22;2229;48.708;9.706;2023-11-21T04:03:09;8.60;99.90
4433;DHT22;2229;48.708;9.706;2023-11-21T04:05:36;8.60;99.90
4433;DHT22;2229;48.708;9.706;2023-11-21T04:08:05;8.60;99.90
4433;DHT22;2229;48.708;9.706;2023-11-21T04:10:32;8.60;99.90
4433;DHT22;2229;48.708;9.706;2023-11-21T04:12:59;8.60;99.90
4433;DHT22;2229;48.708;9.706;2023-11-21T04:15:27;8.60;99.90
4433;DHT22;2229;48.708;9.706;2023-11-21T04:17:54;8.60;99.90
4433;DHT22;2229;48.708;9.706;2023-11-21T04:20:22;8.60;99.90
4433;DHT22;2229;48.708;9.706;2023-11-21T04:22:50;8.60;99.90
4433;DHT22;2229;48.708;9.706;2023-11-21T04:25:18;8.60;99.90
4433;DHT22;2229;48.708;9.706;2023-11-21T04:27:46;8.60;99.90
4433;DHT22;2229;48.708;9.706;2023-11-21T04:30:13;8.60;99.90
4433;DHT22;2229;48.708;9.706;2023-11-21T04:32:41;8.60;99.90
4433;DHT22;2229;48.708;9.706;2023-11-21T04:35:09;8.60;99.90
4433;DHT22;2229;48.708;9.706;2023-11-21T04:37:37;8.60;99.90
4433;DHT22;2229;48.708;9.706;2023-11-21T04:40:05;8.60;99.90
4433;DHT22;2229;48.708;9.706;2023-11-21T04:42:35;8.60;99.90
4433;DHT22;2229;48.708;9.706;2023-11-21T04:45:03;8.60;99.90
4433;DHT22;2229;48.708;9.706;2023-11-21T04:47:34;8.60;99.90
4433;DHT22;2229;48.708;9.706;2023-11-21T04:50:01;8.60;99.90
4433;DHT22;2229;48.708;9.706;2023-11-21T04:52:29;8.60;99.90
4433;DHT22;2229;48.708;9.706;2023-11-21T04:54:57;8.60;99.90
4433;DHT22;2229;48.708;9.706;2023-11-21T04:57:27;8.60;99.90
4433;DHT22;2229;48.708;9.706;2023-11-21T04:59:56;8.60;99.90
4433;DHT22;2229;48.708;9.706;2023-11-21T05:02:23;8.60;99.90
4433;DHT22;2229;48.708;9.706;2023-11-21T05:04:51;8.60;99.90
4433;DHT22;2229;48.708;9.706;2023-11-21T05:07:19;8.60;99.90
4433;DHT22;2229;48.708;9.706;2023-11-21T05:09:46;8.60;99.90
4433;DHT22;2229;48.708;9.706;2023-11-21T05:12:15;8.60;99.90
4433;DHT22;2229;48.708;9.706;2023-11-21T05:14:42;8.60;99.90
4433;DHT22;2229;48.708;9.706;2023-11-21T05:17:11;8.60;99.90
4433;DHT22;2229;48.708;9.706;2023-11-21T05:19:38;8.60;99.90
4433;DHT22;2229;48.708;9.706;2023-11-21T05:22:06;8.60;99.90
4433;DHT22;2229;48.708;9.706;2023-11-21T05:24:34;8.70;99.90
4433;DHT22;2229;48.708;9.706;2023-11-21T05:27:03;8.60;99.90
4433;DHT22;2229;48.708;9.706;2023-11-21T05:29:30;8.70;99.90
4433;DHT22;2229;48.708;9.706;2023-11-21T05:31:57;8.70;99.90
4433;DHT22;2229;48.708;9.706;2023-11-21T05:34:26;8.70;99.90
4433;DHT22;2229;48.708;9.706;2023-11-21T05:36:53;8.70;99.90
4433;DHT22;2229;48.708;9.706;2023-11-21T05:39:20;8.70;99.90
4433;DHT22;2229;48.708;9.706;2023-11-21T05:41:47;8.70;99.90
4433;DHT22;2229;48.708;9.706;2023-11-21T05:44:15;8.70;99.90
4433;DHT22;2229;48.708;9.706;2023-11-21T05:46:44;8.70;99.90
4433;DHT22;2229;48.708;9.706;2023-11-21T05:49:11;8.70;99.90
4433;DHT22;2229;48.708;9.706;2023-11-21T05:51:39;8.70;99.90
4433;DHT22;2229;48.708;9.706;2023-11-21T05:54:06;8.70;99.90
4433;DHT22;2229;48.708;9.706;2023-11-21T05:56:34;8.70;99.90
4433;DHT22;2229;48.708;9.706;2023-11-21T05:59:01;8.70;99.90
4433;DHT22;2229;48.708;9.706;2023-11-21T06:01:31;8.70;99.90
4433;DHT22;2229;48.708;9.706;2023-11-21T06:03:58;8.70;99.90
4433;DHT22;2229;48.708;9.706;2023-11-21T06:06:25;8.70;99.90
4433;DHT22;2229;48.708;9.706;2023-11-21T06:08:54;8.70;99.90
4433;DHT22;2229;48.708;9.706;2023-11-21T06:11:21;8.70;99.90
4433;DHT22;2229;48.708;9.706;2023-11-21T06:13:49;8.70;99.90
4433;DHT22;2229;48.708;9.706;2023-11-21T06:16:18;8.70;99.90
4433;DHT22;2229;48.708;9.706;2023-11-21T06:18:46;8.70;99.90
4433;DHT22;2229;48.708;9.706;2023-11-21T06:21:13;8.60;99.90
4433;DHT22;2229;48.708;9.706;2023-11-21T06:23:42;8.70;99.90
4433;DHT22;2229;48.708;9.706;2023-11-21T06:26:11;8.70;99.90
4433;DHT22;2229;48.708;9.706;2023-11-21T06:28:38;8.70;99.90
4433;DHT22;2229;48.708;9.706;2023-11-21T06:31:06;8.70;99.90
4433;DHT22;2229;48.708;9.706;2023-11-21T06:33:33;8.70;99.90
4433;DHT22;2229;48.708;9.706;2023-11-21T06:36:00;8.70;99.90
4433;DHT22;2229;48.708;9.706;2023-11-21T06:38:28;8.80;99.90
4433;DHT22;2229;48.708;9.706;2023-11-21T06:40:58;8.80;99.90
4433;DHT22;2229;48.708;9.706;2023-11-21T06:43:29;8.70;99.90
4433;DHT22;2229;48.708;9.706;2023-11-21T06:45:57;8.70;99.90
4433;DHT22;2229;48.708;9.706;2023-11-21T06:48:24;8.70;99.90
4433;DHT22;2229;48.708;9.706;2023-11-21T06:50:52;8.70;99.90
4433;DHT22;2229;48.708;9.706;2023-11-21T06:53:19;8.70;99.90
4433;DHT22;2229;48.708;9.706;2023-11-21T06:55:46;8.70;99.90
4433;DHT22;2229;48.708;9.706;2023-11-21T06:58:13;8.70;99.90
4433;DHT22;2229;48.708;9.706;2023-11-21T07:00:42;8.70;99.90
4433;DHT22;2229;48.708;9.706;2023-11-21T07:03:12;8.80;99.90
4433;DHT22;2229;48.708;9.706;2023-11-21T07:05:39;8.80;99.90
4433;DHT22;2229;48.708;9.706;2023-11-21T07:08:06;8.80;99.90
4433;DHT22;2229;48.708;9.706;2023-11-21T07:10:33;8.80;99.90
4433;DHT22;2229;48.708;9.706;2023-11-21T07:13:02;8.80;99.90
4433;DHT22;2229;48.708;9.706;2023-11-21T07:15:29;8.90;99.90
4433;DHT22;2229;48.708;9.706;2023-11-21T07:17:58;8.90;99.90
4433;DHT22;2229;48.708;9.706;2023-11-21T07:20:25;8.90;99.90
4433;DHT22;2229;48.708;9.706;2023-11-21T07:22:53;8.90;99.90
4433;DHT22;2229;48.708;9.706;2023-11-21T07:25:20;8.90;99.90
4433;DHT22;2229;48.708;9.706;2023-11-21T07:27:48;8.90;99.90
4433;DHT22;2229;48.708;9.706;2023-11-21T07:30:15;8.90;99.90
4433;DHT22;2229;48.708;9.706;2023-11-21T07:32:43;8.90;99.90
4433;DHT22;2229;48.708;9.706;2023-11-21T07:35:14;9.00;99.90
4433;DHT22;2229;48.708;9.706;2023-11-21T07:37:41;9.00;99.90
4433;DHT22;2229;48.708;9.706;2023-11-21T07:40:09;9.00;99.90
4433;DHT22;2229;48.708;9.706;2023-11-21T07:42:37;9.00;99.90
4433;DHT22;2229;48.708;9.706;2023-11-21T07:45:06;9.10;99.90
4433;DHT22;2229;48.708;9.706;2023-11-21T07:47:34;9.10;99.90
4433;DHT22;2229;48.708;9.706;2023-11-21T07:50:02;9.10;99.90
4433;DHT22;2229;48.708;9.706;2023-11-21T07:52:31;9.20;99.90
4433;DHT22;2229;48.708;9.706;2023-11-21T07:54:58;9.20;99.90
4433;DHT22;2229;48.708;9.706;2023-11-21T07:57:27;9.30;99.90
4433;DHT22;2229;48.708;9.706;2023-11-21T07:59:54;9.40;99.90
4433;DHT22;2229;48.708;9.706;2023-11-21T08:02:22;9.50;99.90
4433;DHT22;2229;48.708;9.706;2023-11-21T08:04:49;9.50;99.90
4433;DHT22;2229;48.708;9.706;2023-11-21T08:07:17;9.60;99.90
4433;DHT22;2229;48.708;9.706;2023-11-21T08:09:46;9.60;99.90
4433;DHT22;2229;48.708;9.706;2023-11-21T08:12:15;10.00;99.90
4433;DHT22;2229;48.708;9.706;2023-11-21T08:14:43;9.60;99.90
4433;DHT22;2229;48.708;9.706;2023-11-21T08:17:10;9.60;99.90
4433;DHT22;2229;48.708;9.706;2023-11-21T08:19:38;9.60;99.90
4433;DHT22;2229;48.708;9.706;2023-11-21T08:22:05;9.60;99.90
4433;DHT22;2229;48.708;9.706;2023-11-21T08:24:33;9.60;99.90
4433;DHT22;2229;48.708;9.706;2023-11-21T08:27:03;9.70;99.90
4433;DHT22;2229;48.708;9.706;2023-11-21T08:29:32;9.80;99.90
4433;DHT22;2229;48.708;9.706;2023-11-21T08:32:00;9.90;99.90
4433;DHT22;2229;48.708;9.706;2023-11-21T08:34:28;9.90;99.90
4433;DHT22;2229;48.708;9.706;2023-11-21T08:36:56;9.90;99.90
4433;DHT22;2229;48.708;9.706;2023-11-21T08:39:27;10.00;99.90
4433;DHT22;2229;48.708;9.706;2023-11-21T08:41:57;10.00;99.90
4433;DHT22;2229;48.708;9.706;2023-11-21T08:44:25;10.10;99.90
4433;DHT22;2229;48.708;9.706;2023-11-21T08:46:52;10.10;99.90
4433;DHT22;2229;48.708;9.706;2023-11-21T08:49:19;10.10;99.90
4433;DHT22;2229;48.708;9.706;2023-11-21T08:51:47;10.20;99.90
4433;DHT22;2229;48.708;9.706;2023-11-21T08:54:14;10.20;99.90
4433;DHT22;2229;48.708;9.706;2023-11-21T08:56:43;10.30;99.90
4433;DHT22;2229;48.708;9.706;2023-11-21T08:59:10;10.40;99.90
4433;DHT22;2229;48.708;9.706;2023-11-21T09:01:42;10.40;99.90
4433;DHT22;2229;48.708;9.706;2023-11-21T09:04:09;10.50;99.90
4433;DHT22;2229;48.708;9.706;2023-11-21T09:06:36;10.50;99.90
4433;DHT22;2229;48.708;9.706;2023-11-21T09:09:03;10.40;99.90
4433;DHT22;2229;48.708;9.706;2023-11-21T09:11:31;10.40;99.90
4433;DHT22;2229;48.708;9.706;2023-11-21T09:14:00;10.40;99.90
4433;DHT22;2229;48.708;9.706;2023-11-21T09:16:28;10.40;99.90
4433;DHT22;2229;48.708;9.706;2023-11-21T09:18:57;10.30;99.90
4433;DHT22;2229;48.708;9.706;2023-11-21T09:21:25;10.30;99.90
4433;DHT22;2229;48.708;9.706;2023-11-21T09:23:53;10.30;99.90
4433;DHT22;2229;48.708;9.706;2023-11-21T09:26:20;10.20;99.90
4433;DHT22;2229;48.708;9.706;2023-11-21T09:28:47;10.20;99.90
4433;DHT22;2229;48.708;9.706;2023-11-21T09:31:15;10.20;99.90
4433;DHT22;2229;48.708;9.706;2023-11-21T09:33:43;10.20;99.90
4433;DHT22;2229;48.708;9.706;2023-11-21T09:36:13;10.20;99.90
4433;DHT22;2229;48.708;9.706;2023-11-21T09:38:40;10.20;99.90
4433;DHT22;2229;48.708;9.706;2023-11-21T09:41:15;10.20;99.90
4433;DHT22;2229;48.708;9.706;2023-11-21T09:43:45;10.30;99.90
4433;DHT22;2229;48.708;9.706;2023-11-21T09:46:14;10.30;99.90
4433;DHT22;2229;48.708;9.706;2023-11-21T09:48:47;10.30;99.90
4433;DHT22;2229;48.708;9.706;2023-11-21T09:51:19;10.30;99.90
4433;DHT22;2229;48.708;9.706;2023-11-21T09:53:50;10.30;99.90
4433;DHT22;2229;48.708;9.706;2023-11-21T09:56:18;10.30;99.90
4433;DHT22;2229;48.708;9.706;2023-11-21T09:58:51;10.30;99.90
4433;DHT22;2229;48.708;9.706;2023-11-21T10:01:20;10.20;99.90
4433;DHT22;2229;48.708;9.706;2023-11-21T10:03:48;10.10;99.90
4433;DHT22;2229;48.708;9.706;2023-11-21T10:06:17;10.00;99.90
4433;DHT22;2229;48.708;9.706;2023-11-21T10:08:46;10.00;99.90
4433;DHT22;2229;48.708;9.706;2023-11-21T10:11:14;10.00;99.90
4433;DHT22;2229;48.708;9.706;2023-11-21T10:13:44;10.00;99.90
4433;DHT22;2229;48.708;9.706;2023-11-21T10:16:15;10.00;99.90
4433;DHT22;2229;48.708;9.706;2023-11-21T10:18:44;10.00;99.90
4433;DHT22;2229;48.708;9.706;2023-11-21T10:21:12;10.00;99.90
4433;DHT22;2229;48.708;9.706;2023-11-21T10:23:39;10.10;99.90
4433;DHT22;2229;48.708;9.706;2023-11-21T10:26:11;10.20;99.90
4433;DHT22;2229;48.708;9.706;2023-11-21T10:28:46;10.10;99.90
4433;DHT22;2229;48.708;9.706;2023-11-21T10:31:21;10.30;99.90
4433;DHT22;2229;48.708;9.706;2023-11-21T10:33:50;10.30;99.90
4433;DHT22;2229;48.708;9.706;2023-11-21T10:36:25;10.40;99.90
4433;DHT22;2229;48.708;9.706;2023-11-21T10:38:53;10.30;99.90
4433;DHT22;2229;48.708;9.706;2023-11-21T10:41:22;10.30;99.90
4433;DHT22;2229;48.708;9.706;2023-11-21T10:43:53;10.30;99.90
4433;DHT22;2229;48.708;9.706;2023-11-21T10:46:22;10.30;99.90
4433;DHT22;2229;48.708;9.706;2023-11-21T10:48:54;10.40;99.90
4433;DHT22;2229;48.708;9.706;2023-11-21T10:51:22;10.40;99.90
4433;DHT22;2229;48.708;9.706;2023-11-21T10:53:51;10.50;99.90
4433;DHT22;2229;48.708;9.706;2023-11-21T10:56:19;10.60;99.90
4433;DHT22;2229;48.708;9.706;2023-11-21T10:58:52;10.80;99.90
4433;DHT22;2229;48.708;9.706;2023-11-21T11:01:24;11.00;99.90
4433;DHT22;2229;48.708;9.706;2023-11-21T11:03:55;11.30;99.90
4433;DHT22;2229;48.708;9.706;2023-11-21T11:06:24;11.60;99.90
4433;DHT22;2229;48.708;9.706;2023-11-21T11:08:53;12.00;99.90
4433;DHT22;2229;48.708;9.706;2023-11-21T11:11:21;12.20;99.90
4433;DHT22;2229;48.708;9.706;2023-11-21T11:13:50;12.30;99.90
4433;DHT22;2229;48.708;9.706;2023-11-21T11:16:18;12.50;99.90
4433;DHT22;2229;48.708;9.706;2023-11-21T11:18:46;12.50;99.90
4433;DHT22;2229;48.708;9.706;2023-11-21T11:21:23;12.80;99.90
4433;DHT22;2229;48.708;9.706;2023-11-21T11:24:02;13.20;99.90
4433;DHT22;2229;48.708;9.706;2023-11-21T11:26:50;13.50;99.90
4433;DHT22;2229;48.708;9.706;2023-11-21T11:29:26;13.60;99.90
4433;DHT22;2229;48.708;9.706;2023-11-21T11:32:06;13.50;99.90
4433;DHT22;2229;48.708;9.706;2023-11-21T11:34:44;13.40;99.90
4433;DHT22;2229;48.708;9.706;2023-11-21T11:37:12;13.30;99.90
4433;DHT22;2229;48.708;9.706;2023-11-21T11:39:42;13.10;99.90
4433;DHT22;2229;48.708;9.706;2023-11-21T11:42:13;12.80;99.90
4433;DHT22;2229;48.708;9.706;2023-11-21T11:44:50;12.70;99.90
4433;DHT22;2229;48.708;9.706;2023-11-21T11:47:24;12.50;99.90
4433;DHT22;2229;48.708;9.706;2023-11-21T11:50:07;12.40;99.90
4433;DHT22;2229;48.708;9.706;2023-11-21T11:52:41;12.20;99.90
4433;DHT22;2229;48.708;9.706;2023-11-21T11:55:15;12.00;99.90
4433;DHT22;2229;48.708;9.706;2023-11-21T11:57:45;11.90;99.90
4433;DHT22;2229;48.708;9.706;2023-11-21T12:00:16;11.80;99.90
4433;DHT22;2229;48.708;9.706;2023-11-21T12:02:47;11.70;99.90
4433;DHT22;2229;48.708;9.706;2023-11-21T12:05:16;11.60;99.90
4433;DHT22;2229;48.708;9.706;2023-11-21T12:07:49;11.50;99.90
4433;DHT22;2229;48.708;9.706;2023-11-21T12:10:20;11.50;99.90
4433;DHT22;2229;48.708;9.706;2023-11-21T12:12:49;11.40;99.90
4433;DHT22;2229;48.708;9.706;2023-11-21T12:15:18;11.40;99.90
4433;DHT22;2229;48.708;9.706;2023-11-21T12:17:46;11.30;99.90
4433;DHT22;2229;48.708;9.706;2023-11-21T12:20:24;11.20;99.90
4433;DHT22;2229;48.708;9.706;2023-11-21T12:22:52;11.20;99.90
4433;DHT22;2229;48.708;9.706;2023-11-21T12:25:21;11.20;99.90
4433;DHT22;2229;48.708;9.706;2023-11-21T12:27:49;11.20;99.90
4433;DHT22;2229;48.708;9.706;2023-11-21T12:30:20;11.20;99.90
4433;DHT22;2229;48.708;9.706;2023-11-21T12:32:49;11.30;99.90
4433;DHT22;2229;48.708;9.706;2023-11-21T12:35:17;11.30;99.90
4433;DHT22;2229;48.708;9.706;2023-11-21T12:37:46;11.30;99.90
4433;DHT22;2229;48.708;9.706;2023-11-21T12:40:14;11.30;99.90
4433;DHT22;2229;48.708;9.706;2023-11-21T12:42:45;11.30;99.90
4433;DHT22;2229;48.708;9.706;2023-11-21T12:45:23;11.30;99.90
4433;DHT22;2229;48.708;9.706;2023-11-21T12:47:53;11.30;99.90
4433;DHT22;2229;48.708;9.706;2023-11-21T12:50:23;11.30;99.90
4433;DHT22;2229;48.708;9.706;2023-11-21T12:52:58;11.40;99.90
4433;DHT22;2229;48.708;9.706;2023-11-21T12:55:25;11.40;99.90
4433;DHT22;2229;48.708;9.706;2023-11-21T12:57:54;11.50;99.90
4433;DHT22;2229;48.708;9.706;2023-11-21T13:00:28;11.50;99.90
4433;DHT22;2229;48.708;9.706;2023-11-21T13:03:00;11.50;99.90
4433;DHT22;2229;48.708;9.706;2023-11-21T13:05:29;11.40;99.90
4433;DHT22;2229;48.708;9.706;2023-11-21T13:07:57;11.40;99.90
4433;DHT22;2229;48.708;9.706;2023-11-21T13:10:26;11.40;99.90
4433;DHT22;2229;48.708;9.706;2023-11-21T13:12:57;11.40;99.90
4433;DHT22;2229;48.708;9.706;2023-11-21T13:15:30;11.40;99.90
4433;DHT22;2229;48.708;9.706;2023-11-21T13:17:59;11.40;99.90
4433;DHT22;2229;48.708;9.706;2023-11-21T13:20:26;11.40;99.90
4433;DHT22;2229;48.708;9.706;2023-11-21T13:22:57;11.40;99.90
4433;DHT22;2229;48.708;9.706;2023-11-21T13:25:25;11.40;99.90
4433;DHT22;2229;48.708;9.706;2023-11-21T13:27:53;11.30;99.90
4433;DHT22;2229;48.708;9.706;2023-11-21T13:30:20;11.30;99.90
4433;DHT22;2229;48.708;9.706;2023-11-21T13:32:50;11.30;99.90
4433;DHT22;2229;48.708;9.706;2023-11-21T13:35:18;11.30;99.90
4433;DHT22;2229;48.708;9.706;2023-11-21T13:37:57;11.30;99.90
4433;DHT22;2229;48.708;9.706;2023-11-21T13:40:26;11.30;99.90
4433;DHT22;2229;48.708;9.706;2023-11-21T13:42:53;11.30;99.90
4433;DHT22;2229;48.708;9.706;2023-11-21T13:45:22;11.30;99.90
4433;DHT22;2229;48.708;9.706;2023-11-21T13:47:53;11.30;99.90
4433;DHT22;2229;48.708;9.706;2023-11-21T13:50:23;11.30;99.90
4433;DHT22;2229;48.708;9.706;2023-11-21T13:52:56;11.30;99.90
4433;DHT22;2229;48.708;9.706;2023-11-21T13:55:24;11.20;99.90
4433;DHT22;2229;48.708;9.706;2023-11-21T13:57:51;11.20;99.90
4433;DHT22;2229;48.708;9.706;2023-11-21T14:00:19;11.10;99.90
4433;DHT22;2229;48.708;9.706;2023-11-21T14:03:13;11.10;99.90
4433;DHT22;2229;48.708;9.706;2023-11-21T14:05:47;11.00;99.90
4433;DHT22;2229;48.708;9.706;2023-11-21T14:08:18;10.90;99.90
4433;DHT22;2229;48.708;9.706;2023-11-21T14:10:47;10.80;99.90
4433;DHT22;2229;48.708;9.706;2023-11-21T14:13:21;10.80;99.90
4433;DHT22;2229;48.708;9.706;2023-11-21T14:15:49;10.70;99.90
4433;DHT22;2229;48.708;9.706;2023-11-21T14:18:21;10.70;99.90
4433;DHT22;2229;48.708;9.706;2023-11-21T14:20:57;10.60;99.90
4433;DHT22;2229;48.708;9.706;2023-11-21T14:23:24;10.60;99.90
4433;DHT22;2229;48.708;9.706;2023-11-21T14:25:52;10.60;99.90
4433;DHT22;2229;48.708;9.706;2023-11-21T14:28:19;10.50;99.90
4433;DHT22;2229;48.708;9.706;2023-11-21T14:30:46;10.50;99.90
4433;DHT22;2229;48.708;9.706;2023-11-21T14:33:14;10.50;99.90
4433;DHT22;2229;48.708;9.706;2023-11-21T14:35:43;10.50;99.90
4433;DHT22;2229;48.708;9.706;2023-11-21T14:38:11;10.50;99.90
4433;DHT22;2229;48.708;9.706;2023-11-21T14:40:40;10.50;99.90
4433;DHT22;2229;48.708;9.706;2023-11-21T14:43:07;10.50;99.90
4433;DHT22;2229;48.708;9.706;2023-11-21T14:45:34;10.50;99.90
4433;DHT22;2229;48.708;9.706;2023-11-21T14:48:02;10.50;99.90
4433;DHT22;2229;48.708;9.706;2023-11-21T14:50:37;10.40;99.90
4433;DHT22;2229;48.708;9.706;2023-11-21T14:53:20;10.40;99.90
4433;DHT22;2229;48.708;9.706;2023-11-21T14:56:10;10.30;99.90
4433;DHT22;2229;48.708;9.706;2023-11-21T14:58:36;10.30;99.90
4433;DHT22;2229;48.708;9.706;2023-11-21T15:01:05;10.30;99.90
4433;DHT22;2229;48.708;9.706;2023-11-21T15:03:31;10.30;99.90
4433;DHT22;2229;48.708;9.706;2023-11-21T15:06:16;10.20;99.90
4433;DHT22;2229;48.708;9.706;2023-11-21T15:08:50;10.20;99.90
4433;DHT22;2229;48.708;9.706;2023-11-21T15:11:31;10.20;99.90
4433;DHT22;2229;48.708;9.706;2023-11-21T15:13:59;10.20;99.90
4433;DHT22;2229;48.708;9.706;2023-11-21T15:16:26;10.10;99.90
4433;DHT22;2229;48.708;9.706;2023-11-21T15:18:53;10.00;99.90
4433;DHT22;2229;48.708;9.706;2023-11-21T15:21:21;9.90;99.90
4433;DHT22;2229;48.708;9.706;2023-11-21T15:23:51;9.90;99.90
4433;DHT22;2229;48.708;9.706;2023-11-21T15:26:18;9.80;99.90
4433;DHT22;2229;48.708;9.706;2023-11-21T15:28:45;9.80;99.90
4433;DHT22;2229;48.708;9.706;2023-11-21T15:31:12;9.80;99.90
4433;DHT22;2229;48.708;9.706;2023-11-21T15:33:42;9.70;99.90
4433;DHT22;2229;48.708;9.706;2023-11-21T15:36:10;9.70;99.90
4433;DHT22;2229;48.708;9.706;2023-11-21T15:38:39;9.70;99.90
4433;DHT22;2229;48.708;9.706;2023-11-21T15:41:11;9.70;99.90
4433;DHT22;2229;48.708;9.706;2023-11-21T15:43:38;9.70;99.90
4433;DHT22;2229;48.708;9.706;2023-11-21T15:46:06;9.60;99.90
4433;DHT22;2229;48.708;9.706;2023-11-21T15:48:34;9.60;99.90
4433;DHT22;2229;48.708;9.706;2023-11-21T15:51:02;9.60;99.90
4433;DHT22;2229;48.708;9.706;2023-11-21T15:53:31;9.60;99.90
4433;DHT22;2229;48.708;9.706;2023-11-21T15:55:59;9.60;99.90
4433;DHT22;2229;48.708;9.706;2023-11-21T15:58:27;9.60;99.90
4433;DHT22;2229;48.708;9.706;2023-11-21T16:00:55;9.60;99.90
4433;DHT22;2229;48.708;9.706;2023-11-21T16:03:23;9.60;99.90
4433;DHT22;2229;48.708;9.706;2023-11-21T16:05:50;9.60;99.90
4433;DHT22;2229;48.708;9.706;2023-11-21T16:08:17;9.60;99.90
4433;DHT22;2229;48.708;9.706;2023-11-21T16:10:45;9.60;99.90
4433;DHT22;2229;48.708;9.706;2023-11-21T16:13:12;9.60;99.90
4433;DHT22;2229;48.708;9.706;2023-11-21T16:15:42;9.50;99.90
4433;DHT22;2229;48.708;9.706;2023-11-21T16:18:10;9.60;99.90
4433;DHT22;2229;48.708;9.706;2023-11-21T16:20:37;9.60;99.90
4433;DHT22;2229;48.708;9.706;2023-11-21T16:23:04;9.60;99.90